createdAt,value
2024-04-17T00:01:58.300Z,7.69
2024-04-17T00:04:25.061Z,7.81
2024-04-17T00:06:51.751Z,7.82
2024-04-17T00:09:18.283Z,7.87
2024-04-17T00:11:44.978Z,7.47
2024-04-17T00:14:12.938Z,7.66
2024-04-17T00:16:39.590Z,7.79
2024-04-17T00:19:06.195Z,7.74
2024-04-17T00:21:32.821Z,7.80
2024-04-17T00:23:59.383Z,7.92
2024-04-17T00:26:25.978Z,7.55
2024-04-17T00:28:52.623Z,7.88
2024-04-17T00:31:19.235Z,7.63
2024-04-17T00:33:45.923Z,8.14
2024-04-17T00:36:12.560Z,7.85
2024-04-17T00:38:39.115Z,7.92
2024-04-17T00:41:05.743Z,7.95
2024-04-17T00:43:32.334Z,8.13
2024-04-17T00:45:58.934Z,8.12
2024-04-17T00:48:25.575Z,8.30
2024-04-17T00:50:54.176Z,7.59
2024-04-17T00:53:28.514Z,8.03
2024-04-17T00:55:57.351Z,7.86
2024-04-17T00:58:24.532Z,7.90
2024-04-17T01:00:51.234Z,7.93
2024-04-17T01:03:17.875Z,7.96
2024-04-17T01:05:44.754Z,8.16
2024-04-17T01:08:11.924Z,8.05
2024-04-17T01:10:38.658Z,8.07
2024-04-17T01:13:05.412Z,8.14
2024-04-17T01:15:32.032Z,8.05
2024-04-17T01:18:00.197Z,8.01
2024-04-17T01:20:27.151Z,7.91
2024-04-17T01:22:54.300Z,8.16
2024-04-17T01:25:21.188Z,8.08
2024-04-17T01:27:47.780Z,8.18
2024-04-17T01:30:14.383Z,7.87
2024-04-17T01:32:41.515Z,8.22
2024-04-17T01:35:08.163Z,8.26
2024-04-17T01:37:34.865Z,8.18
2024-04-17T01:40:01.428Z,8.21
2024-04-17T01:42:27.983Z,8.18
2024-04-17T01:44:54.533Z,8.04
2024-04-17T01:47:21.113Z,8.20
2024-04-17T01:49:47.762Z,8.29
2024-04-17T01:52:14.290Z,8.14
2024-04-17T01:54:41.051Z,8.26
2024-04-17T01:57:07.827Z,8.10
2024-04-17T01:59:34.781Z,8.15
2024-04-17T02:04:36.754Z,8.10
2024-04-17T02:07:03.387Z,8.27
2024-04-17T02:09:29.978Z,7.91
2024-04-17T02:11:56.504Z,7.87
2024-04-17T02:14:23.063Z,7.82
2024-04-17T02:16:50.864Z,7.80
2024-04-17T02:19:17.557Z,7.84
2024-04-17T02:21:44.145Z,7.51
2024-04-17T02:24:10.676Z,7.80
2024-04-17T02:26:37.664Z,7.73
2024-04-17T02:29:04.206Z,7.67
2024-04-17T02:31:30.798Z,7.60
2024-04-17T02:33:57.358Z,7.74
2024-04-17T02:36:23.950Z,7.85
2024-04-17T02:38:50.491Z,7.91
2024-04-17T02:41:17.084Z,7.90
2024-04-17T02:43:43.665Z,7.84
2024-04-17T02:46:10.304Z,7.98
2024-04-17T02:48:36.878Z,7.92
2024-04-17T02:51:03.487Z,7.87
2024-04-17T02:53:30.059Z,7.78
2024-04-17T02:55:56.699Z,7.87
2024-04-17T02:58:23.245Z,7.90
2024-04-17T03:00:49.825Z,7.66
2024-04-17T03:03:16.570Z,7.85
2024-04-17T03:05:43.217Z,7.87
2024-04-17T03:08:09.732Z,8.27
2024-04-17T03:10:36.369Z,8.11
2024-04-17T03:13:03.048Z,7.84
2024-04-17T03:15:29.635Z,8.11
2024-04-17T03:17:57.175Z,8.00
2024-04-17T03:20:23.998Z,7.45
2024-04-17T03:22:51.537Z,7.47
2024-04-17T03:25:18.173Z,7.81
2024-04-17T03:27:44.721Z,7.90
2024-04-17T03:30:11.572Z,7.76
2024-04-17T03:32:38.168Z,7.53
2024-04-17T03:35:05.106Z,7.66
2024-04-17T03:37:31.705Z,7.58
2024-04-17T03:39:58.273Z,7.61
2024-04-17T03:42:24.827Z,7.22
2024-04-17T03:44:51.367Z,7.43
2024-04-17T03:47:17.980Z,7.08
2024-04-17T03:49:44.565Z,7.23
2024-04-17T03:52:11.132Z,7.10
2024-04-17T03:54:37.737Z,7.27
2024-04-17T03:57:04.641Z,7.36
2024-04-17T03:59:31.210Z,7.08
2024-04-17T04:01:57.995Z,6.95
2024-04-17T04:04:24.981Z,7.21
2024-04-17T04:06:51.703Z,6.98
2024-04-17T04:09:18.279Z,6.79
2024-04-17T04:11:44.844Z,6.54
2024-04-17T04:14:11.468Z,6.45
2024-04-17T04:16:38.145Z,6.66
2024-04-17T04:19:04.737Z,7.67
2024-04-17T04:21:31.322Z,8.02
2024-04-17T04:23:58.047Z,7.62
2024-04-17T04:26:24.746Z,8.25
2024-04-17T04:28:52.362Z,7.58
2024-04-17T04:31:18.961Z,7.80
2024-04-17T04:33:46.074Z,7.48
2024-04-17T04:36:12.616Z,7.01
2024-04-17T04:38:39.441Z,6.88
2024-04-17T04:41:06.448Z,7.44
2024-04-17T04:43:33.111Z,7.57
2024-04-17T04:46:00.255Z,7.66
2024-04-17T04:48:26.843Z,7.51
2024-04-17T04:50:53.843Z,7.24
2024-04-17T04:53:20.579Z,7.14
2024-04-17T04:56:01.396Z,6.72
2024-04-17T04:58:28.068Z,6.85
2024-04-17T05:00:55.866Z,6.68
2024-04-17T05:03:23.549Z,6.75
2024-04-17T05:05:50.270Z,6.94
2024-04-17T05:08:17.511Z,7.05
2024-04-17T05:10:44.119Z,6.61
2024-04-17T05:13:11.087Z,6.89
2024-04-17T05:15:37.699Z,6.59
2024-04-17T05:18:04.387Z,6.73
2024-04-17T05:20:33.482Z,7.02
2024-04-17T05:23:03.301Z,7.21
2024-04-17T05:25:30.061Z,6.85
2024-04-17T05:27:56.753Z,7.05
2024-04-17T05:30:23.299Z,6.54
2024-04-17T05:32:50.021Z,6.84
2024-04-17T05:35:20.801Z,6.73
2024-04-17T05:37:47.374Z,6.90
2024-04-17T05:40:14.056Z,7.00
2024-04-17T05:42:40.713Z,6.78
2024-04-17T05:45:07.633Z,6.87
2024-04-17T05:47:34.335Z,6.41
2024-04-17T05:50:05.167Z,6.42
2024-04-17T05:52:34.357Z,6.41
2024-04-17T05:55:01.063Z,6.56
2024-04-17T05:57:27.712Z,6.78
2024-04-17T05:59:54.338Z,7.06
2024-04-17T06:02:20.914Z,7.46
2024-04-17T06:04:47.511Z,7.50
2024-04-17T06:07:14.141Z,9.36
2024-04-17T06:09:40.785Z,10.66
2024-04-17T06:12:07.529Z,11.12
2024-04-17T06:14:34.104Z,10.13
2024-04-17T06:17:00.696Z,9.58
2024-04-17T06:19:27.329Z,9.20
2024-04-17T06:21:55.272Z,9.17
2024-04-17T06:24:23.417Z,9.15
2024-04-17T06:26:52.495Z,9.27
2024-04-17T06:29:19.072Z,8.60
2024-04-17T06:31:48.063Z,8.26
2024-04-17T06:34:14.877Z,8.12
2024-04-17T06:36:41.734Z,8.38
2024-04-17T06:39:08.316Z,9.65
2024-04-17T06:41:43.256Z,12.12
2024-04-17T06:44:18.479Z,11.88
2024-04-17T06:46:45.117Z,13.31
2024-04-17T06:49:16.265Z,14.47
2024-04-17T06:51:42.945Z,15.32
2024-04-17T06:54:09.488Z,14.51
2024-04-17T06:56:38.473Z,15.66
2024-04-17T06:59:05.082Z,15.94
2024-04-17T07:01:31.727Z,14.22
2024-04-17T07:03:58.448Z,12.53
2024-04-17T07:06:25.154Z,13.26
2024-04-17T07:08:51.754Z,14.03
2024-04-17T07:11:18.485Z,15.01
2024-04-17T07:14:27.917Z,15.79
2024-04-17T07:22:22.388Z,16.97
2024-04-17T07:24:48.992Z,17.12
2024-04-17T07:27:15.620Z,15.44
2024-04-17T07:29:42.158Z,13.97
2024-04-17T07:32:08.964Z,14.52
2024-04-17T07:34:35.646Z,14.18
2024-04-17T07:37:03.826Z,15.04
2024-04-17T07:39:30.486Z,15.66
2024-04-17T07:41:57.092Z,17.36
2024-04-17T07:44:23.714Z,17.33
2024-04-17T07:46:50.344Z,17.69
2024-04-17T07:49:17.547Z,17.15
2024-04-17T07:51:44.131Z,17.78
2024-04-17T07:54:10.749Z,17.09
2024-04-17T07:56:37.306Z,16.49
2024-04-17T07:59:04.428Z,17.58
2024-04-17T08:01:31.114Z,16.97
2024-04-17T08:03:57.742Z,15.94
2024-04-17T08:06:24.323Z,16.22
2024-04-17T08:08:51.192Z,15.92
2024-04-17T08:11:23.931Z,15.90
2024-04-17T08:13:52.651Z,15.97
2024-04-17T08:16:19.283Z,16.13
2024-04-17T08:18:45.958Z,16.35
2024-04-17T08:21:12.618Z,15.89
2024-04-17T08:23:40.571Z,15.62
2024-04-17T08:26:07.501Z,14.70
2024-04-17T08:28:34.155Z,13.91
2024-04-17T08:31:01.170Z,14.24
2024-04-17T08:33:27.949Z,14.93
2024-04-17T08:35:54.712Z,15.03
2024-04-17T08:38:21.379Z,15.37
2024-04-17T08:40:48.285Z,15.38
2024-04-17T08:43:36.815Z,16.58
2024-04-17T08:46:03.945Z,15.61
2024-04-17T08:48:32.869Z,15.99
2024-04-17T08:51:01.192Z,14.38
2024-04-17T08:53:28.975Z,14.25
2024-04-17T08:55:56.594Z,14.14
2024-04-17T08:58:23.257Z,14.23
2024-04-17T09:00:51.907Z,14.85
2024-04-17T09:03:23.982Z,15.19
2024-04-17T09:05:55.666Z,14.73
2024-04-17T09:08:23.367Z,12.91
2024-04-17T09:10:50.553Z,13.46
2024-04-17T09:13:18.006Z,14.64
2024-04-17T09:15:44.672Z,14.10
2024-04-17T09:18:11.979Z,14.16
2024-04-17T09:20:38.669Z,13.66
2024-04-17T09:23:12.029Z,14.50
2024-04-17T09:25:39.107Z,15.92
2024-04-17T09:28:06.582Z,15.65
2024-04-17T09:30:33.127Z,14.74
2024-04-17T09:33:00.475Z,14.47
2024-04-17T09:35:28.689Z,14.89
2024-04-17T09:37:55.494Z,13.78
2024-04-17T09:40:22.259Z,14.46
2024-04-17T09:42:52.900Z,13.78
2024-04-17T09:45:25.962Z,13.24
2024-04-17T09:47:56.602Z,13.16
2024-04-17T09:50:26.896Z,13.26
2024-04-17T09:52:59.969Z,13.71
2024-04-17T09:55:31.051Z,13.96
2024-04-17T09:57:58.775Z,12.86
2024-04-17T10:00:25.983Z,12.80
2024-04-17T10:02:55.289Z,13.60
2024-04-17T10:05:23.760Z,12.74
2024-04-17T10:07:51.576Z,12.49
2024-04-17T10:10:19.556Z,12.71
2024-04-17T10:12:48.203Z,12.36
2024-04-17T10:15:14.922Z,12.02
2024-04-17T10:17:41.936Z,11.92
2024-04-17T10:20:26.987Z,11.37
2024-04-17T10:23:03.127Z,11.75
2024-04-17T10:25:38.412Z,11.50
2024-04-17T10:28:16.308Z,11.94
2024-04-17T10:30:44.485Z,11.93
2024-04-17T10:33:21.234Z,12.46
2024-04-17T10:35:50.226Z,12.44
2024-04-17T10:38:28.276Z,13.53
2024-04-17T10:40:59.257Z,13.98
2024-04-17T10:43:27.273Z,14.49
2024-04-17T10:46:06.135Z,14.62
2024-04-17T10:48:43.466Z,13.87
2024-04-17T10:51:11.016Z,13.26
2024-04-17T10:53:38.726Z,13.19
2024-04-17T10:56:05.800Z,12.85
2024-04-17T10:58:34.619Z,13.00
2024-04-17T11:01:02.624Z,13.31
2024-04-17T11:03:29.311Z,13.97
2024-04-17T11:05:56.531Z,14.41
2024-04-17T11:08:23.235Z,14.06
2024-04-17T11:10:49.870Z,13.59
2024-04-17T11:13:19.804Z,12.99
2024-04-17T11:15:46.402Z,12.74
2024-04-17T11:18:13.124Z,12.55
2024-04-17T11:20:40.842Z,12.85
2024-04-17T11:23:11.055Z,12.67
2024-04-17T11:25:38.669Z,12.40
2024-04-17T11:28:05.431Z,12.65
2024-04-17T11:30:32.144Z,12.40
2024-04-17T11:33:03.836Z,12.33
2024-04-17T11:35:30.542Z,12.22
2024-04-17T11:37:57.397Z,12.36
2024-04-17T11:40:25.230Z,12.16
2024-04-17T11:42:52.236Z,12.22
2024-04-17T11:45:18.960Z,12.19
2024-04-17T11:47:45.714Z,11.99
2024-04-17T11:50:12.909Z,11.49
2024-04-17T11:52:40.448Z,11.38
2024-04-17T11:55:07.217Z,11.84
2024-04-17T11:57:33.952Z,11.90
2024-04-17T12:00:00.560Z,12.13
2024-04-17T12:02:27.140Z,12.07
2024-04-17T12:04:53.807Z,12.28
2024-04-17T12:07:20.571Z,11.63
2024-04-17T12:09:50.104Z,11.53
2024-04-17T12:12:20.006Z,11.62
2024-04-17T12:14:46.581Z,11.54
2024-04-17T12:17:13.719Z,12.12
2024-04-17T12:19:40.377Z,12.02
2024-04-17T12:22:06.961Z,11.72
2024-04-17T12:24:52.085Z,11.78
2024-04-17T12:27:18.763Z,11.12
2024-04-17T12:29:45.505Z,11.65
2024-04-17T12:32:12.210Z,11.62
2024-04-17T12:34:39.497Z,12.73
2024-04-17T12:37:06.234Z,11.73
2024-04-17T12:39:32.806Z,11.31
2024-04-17T12:41:59.359Z,11.82
2024-04-17T12:44:25.933Z,12.34
2024-04-17T12:46:54.269Z,13.52
2024-04-17T12:49:20.959Z,14.54
2024-04-17T12:51:47.609Z,15.06
2024-04-17T12:54:15.387Z,16.02
2024-04-17T12:56:43.323Z,18.17
2024-04-17T12:59:10.859Z,18.27
2024-04-17T13:01:37.552Z,18.81
2024-04-17T13:04:04.204Z,19.07
2024-04-17T13:06:30.792Z,17.11
2024-04-17T13:08:57.360Z,14.86
2024-04-17T13:11:24.152Z,14.11
2024-04-17T13:13:55.666Z,14.25
2024-04-17T13:16:22.299Z,12.98
2024-04-17T13:18:51.716Z,12.56
2024-04-17T13:21:18.406Z,12.58
2024-04-17T13:23:45.110Z,12.96
2024-04-17T13:26:11.933Z,14.63
2024-04-17T13:28:38.847Z,14.33
2024-04-17T13:31:08.042Z,13.90
2024-04-17T13:33:39.379Z,13.00
2024-04-17T13:36:08.277Z,12.84
2024-04-17T13:38:35.249Z,13.32
2024-04-17T13:41:07.017Z,14.07
2024-04-17T13:43:35.386Z,15.24
2024-04-17T13:46:13.232Z,14.98
2024-04-17T13:48:40.202Z,14.66
2024-04-17T13:51:08.404Z,15.57
2024-04-17T13:53:35.928Z,15.96
2024-04-17T13:56:02.944Z,15.55
2024-04-17T13:58:30.050Z,14.63
2024-04-17T14:00:57.786Z,13.78
2024-04-17T14:03:26.143Z,14.54
2024-04-17T14:05:54.114Z,14.08
2024-04-17T14:08:23.281Z,13.78
2024-04-17T14:10:51.359Z,13.55
2024-04-17T14:13:18.639Z,13.57
2024-04-17T14:15:45.326Z,13.11
2024-04-17T14:18:12.075Z,14.22
2024-04-17T14:20:39.456Z,14.63
2024-04-17T14:23:06.741Z,14.31
2024-04-17T14:25:33.982Z,14.58
2024-04-17T14:28:00.650Z,14.52
2024-04-17T14:30:27.313Z,14.51
2024-04-17T14:32:53.938Z,13.77
2024-04-17T14:35:22.149Z,14.95
2024-04-17T14:37:48.837Z,16.36
2024-04-17T14:40:15.632Z,16.34
2024-04-17T14:42:43.021Z,16.92
2024-04-17T14:45:09.772Z,18.48
2024-04-17T14:47:36.430Z,16.53
2024-04-17T14:50:03.103Z,15.71
2024-04-17T14:52:29.680Z,14.63
2024-04-17T14:54:57.161Z,13.88
2024-04-17T14:57:23.784Z,13.46
2024-04-17T14:59:50.428Z,12.86
2024-04-17T15:02:16.991Z,12.02
2024-04-17T15:04:43.604Z,11.50
2024-04-17T15:07:10.154Z,11.39
2024-04-17T15:09:36.840Z,11.34
2024-04-17T15:12:03.697Z,10.92
2024-04-17T15:14:30.351Z,10.65
2024-04-17T15:16:56.978Z,11.01
2024-04-17T15:19:24.389Z,11.66
2024-04-17T15:21:51.027Z,11.61
2024-04-17T15:24:18.977Z,11.97
2024-04-17T15:26:45.622Z,11.59
2024-04-17T15:29:12.239Z,11.85
2024-04-17T15:31:38.821Z,11.44
2024-04-17T15:34:05.397Z,11.42
2024-04-17T15:36:32.325Z,11.42
2024-04-17T15:38:59.102Z,11.54
2024-04-17T15:41:25.722Z,11.55
2024-04-17T15:43:55.033Z,11.48
2024-04-17T15:46:21.659Z,11.35
2024-04-17T15:48:48.509Z,11.87
2024-04-17T15:51:17.848Z,11.95
2024-04-17T15:53:46.457Z,11.76
2024-04-17T15:56:18.610Z,11.79
2024-04-17T15:58:46.209Z,11.78
2024-04-17T16:01:14.882Z,11.75
2024-04-17T16:03:42.057Z,11.55
2024-04-17T16:06:14.263Z,11.76
2024-04-17T16:08:42.400Z,11.64
2024-04-17T16:11:10.301Z,11.89
2024-04-17T16:13:38.971Z,11.44
2024-04-17T16:16:07.429Z,11.31
2024-04-17T16:18:35.526Z,10.96
2024-04-17T16:21:13.440Z,10.85
2024-04-17T16:23:40.250Z,10.63
2024-04-17T16:26:18.096Z,10.04
2024-04-17T16:28:47.632Z,10.15
2024-04-17T16:31:36.234Z,10.13
2024-04-17T16:36:49.234Z,10.22
2024-04-17T16:39:15.862Z,10.09
2024-04-17T16:41:43.711Z,10.03
2024-04-17T16:44:10.278Z,10.17
2024-04-17T16:46:36.844Z,10.28
2024-04-17T16:49:04.905Z,10.16
2024-04-17T16:51:31.769Z,10.06
2024-04-17T16:53:58.392Z,9.85
2024-04-17T16:56:25.227Z,10.00
2024-04-17T16:58:55.124Z,9.98
2024-04-17T17:01:21.760Z,10.13
2024-04-17T17:03:48.398Z,9.87
2024-04-17T17:06:15.152Z,9.95
2024-04-17T17:08:41.801Z,9.94
2024-04-17T17:11:08.578Z,9.90
2024-04-17T17:13:36.037Z,10.09
2024-04-17T17:16:04.486Z,9.84
2024-04-17T17:18:31.654Z,10.01
2024-04-17T17:20:59.621Z,10.59
2024-04-17T17:23:30.432Z,9.99
2024-04-17T17:25:57.519Z,10.20
2024-04-17T17:28:27.475Z,9.69
2024-04-17T17:31:03.060Z,9.97
2024-04-17T17:33:30.570Z,9.62
2024-04-17T17:36:13.100Z,9.50
2024-04-17T17:38:40.217Z,9.64
2024-04-17T17:41:10.788Z,9.68
2024-04-17T17:43:40.882Z,9.58
2024-04-17T17:46:12.693Z,9.45
2024-04-17T17:48:41.039Z,9.00
2024-04-17T17:51:12.712Z,9.17
2024-04-17T17:53:45.864Z,9.11
2024-04-17T17:56:17.511Z,9.01
2024-04-17T17:58:52.055Z,8.92
2024-04-17T18:01:27.999Z,8.97
2024-04-17T18:03:58.261Z,8.75
2024-04-17T18:06:25.215Z,8.54
2024-04-17T18:08:57.552Z,8.74
2024-04-17T18:11:29.486Z,8.49
2024-04-17T18:14:00.636Z,8.44
2024-04-17T18:16:37.154Z,8.42
2024-04-17T18:19:06.902Z,8.36
2024-04-17T18:21:33.663Z,8.57
2024-04-17T18:24:00.400Z,8.48
2024-04-17T18:26:27.892Z,8.62
2024-04-17T18:28:55.171Z,8.69
2024-04-17T18:31:22.574Z,8.41
2024-04-17T18:33:57.347Z,8.42
2024-04-17T18:36:30.574Z,8.28
2024-04-17T18:39:01.046Z,8.11
2024-04-17T18:41:31.105Z,8.06
2024-04-17T18:44:05.348Z,8.04
2024-04-17T18:46:39.537Z,8.13
2024-04-17T18:49:11.762Z,8.11
2024-04-17T18:51:38.422Z,7.93
2024-04-17T18:54:05.313Z,7.97
2024-04-17T18:56:31.928Z,7.32
2024-04-17T18:58:59.368Z,7.36
2024-04-17T19:01:26.525Z,7.24
2024-04-17T19:04:02.603Z,7.11
2024-04-17T19:06:29.319Z,6.71
2024-04-17T19:08:56.017Z,6.95
2024-04-17T19:11:22.680Z,6.91
2024-04-17T19:13:49.343Z,6.49
2024-04-17T19:16:20.892Z,6.41
2024-04-17T19:18:49.710Z,6.54
2024-04-17T19:21:17.877Z,6.33
2024-04-17T19:23:45.875Z,5.76
2024-04-17T19:26:14.152Z,6.05
2024-04-17T19:28:41.041Z,6.02
2024-04-17T19:31:08.026Z,5.80
2024-04-17T19:33:44.590Z,5.61
2024-04-17T19:36:12.688Z,5.72
2024-04-17T19:38:43.658Z,5.59
2024-04-17T19:41:11.651Z,5.54
2024-04-17T19:43:39.372Z,5.47
2024-04-17T19:46:10.911Z,5.58
2024-04-17T19:48:44.014Z,5.50
2024-04-17T19:51:15.587Z,5.35
2024-04-17T19:53:46.517Z,5.56
2024-04-17T19:56:14.170Z,5.37
2024-04-17T19:58:40.989Z,5.21
2024-04-17T20:01:10.883Z,5.32
2024-04-17T20:03:43.815Z,5.12
2024-04-17T20:06:13.499Z,5.07
2024-04-17T20:08:43.811Z,5.43
2024-04-17T20:11:13.825Z,5.25
2024-04-17T20:13:40.640Z,4.81
2024-04-17T20:16:09.078Z,4.41
2024-04-17T20:18:37.605Z,4.60
2024-04-17T20:21:10.290Z,4.74
2024-04-17T20:23:46.700Z,4.66
2024-04-17T20:26:16.437Z,4.34
2024-04-17T20:28:52.118Z,4.39
2024-04-17T20:31:25.001Z,4.60
2024-04-17T20:33:54.306Z,4.53
2024-04-17T20:36:31.840Z,4.70
2024-04-17T20:38:58.504Z,4.70
2024-04-17T20:41:29.418Z,4.59
2024-04-17T20:43:56.214Z,4.47
2024-04-17T20:46:23.062Z,4.16
2024-04-17T20:48:52.126Z,3.89
2024-04-17T20:51:19.251Z,3.98
2024-04-17T20:53:48.957Z,4.44
2024-04-17T20:56:15.882Z,4.49
2024-04-17T20:58:42.458Z,4.35
2024-04-17T21:01:10.595Z,4.55
2024-04-17T21:03:38.612Z,4.57
2024-04-17T21:06:14.469Z,4.28
2024-04-17T21:08:42.770Z,3.71
2024-04-17T21:11:11.552Z,3.54
2024-04-17T21:13:39.247Z,3.71
2024-04-17T21:16:11.554Z,3.84
2024-04-17T21:18:38.681Z,3.83
2024-04-17T21:21:06.705Z,4.02
2024-04-17T21:23:35.034Z,3.95
2024-04-17T21:26:01.839Z,3.73
2024-04-17T21:28:28.647Z,3.83
2024-04-17T21:30:58.003Z,3.87
2024-04-17T21:33:28.883Z,3.72
2024-04-17T21:35:55.805Z,3.75
2024-04-17T21:38:22.860Z,3.61
2024-04-17T21:40:58.586Z,3.54
2024-04-17T21:43:26.891Z,3.62
2024-04-17T21:45:55.861Z,3.53
2024-04-17T21:48:22.753Z,3.89
2024-04-17T21:50:49.880Z,3.59
2024-04-17T21:53:16.722Z,3.60
2024-04-17T21:55:43.313Z,3.77
2024-04-17T21:58:09.973Z,3.73
2024-04-17T22:00:39.797Z,3.78
2024-04-17T22:03:08.409Z,3.82
2024-04-17T22:05:35.138Z,3.42
2024-04-17T22:08:01.950Z,3.01
2024-04-17T22:10:29.459Z,3.27
2024-04-17T22:12:56.068Z,3.53
2024-04-17T22:15:22.681Z,3.65
2024-04-17T22:17:49.339Z,3.85
2024-04-17T22:20:15.953Z,3.42
2024-04-17T22:22:42.555Z,4.05
2024-04-17T22:25:09.179Z,4.10
2024-04-17T22:27:35.784Z,4.25
2024-04-17T22:30:02.467Z,4.52
2024-04-17T22:32:29.053Z,4.72
2024-04-17T22:34:55.623Z,4.07
2024-04-17T22:37:23.679Z,3.73
2024-04-17T22:39:50.263Z,3.86
2024-04-17T22:42:16.860Z,3.89
2024-04-17T22:44:43.559Z,4.11
2024-04-17T22:47:10.202Z,3.98
2024-04-17T22:49:36.835Z,4.04
2024-04-17T22:52:03.643Z,4.20
2024-04-17T22:54:30.427Z,4.00
2024-04-17T22:56:59.931Z,4.10
2024-04-17T22:59:26.847Z,4.01
2024-04-17T23:01:53.478Z,4.24
2024-04-17T23:04:20.077Z,4.45
2024-04-17T23:06:46.725Z,4.85
2024-04-17T23:09:13.309Z,4.64
2024-04-17T23:11:39.892Z,4.72
2024-04-17T23:14:06.559Z,4.50
2024-04-17T23:16:33.153Z,4.24
2024-04-17T23:19:08.706Z,4.39
2024-04-17T23:21:43.460Z,4.51
2024-04-17T23:24:10.198Z,4.35
2024-04-17T23:26:36.785Z,4.29
2024-04-17T23:29:03.409Z,4.58
2024-04-17T23:31:29.941Z,4.39
2024-04-17T23:33:56.518Z,4.30
2024-04-17T23:36:23.456Z,4.29
2024-04-17T23:38:50.155Z,3.93
2024-04-17T23:41:16.700Z,4.63
2024-04-17T23:43:44.034Z,4.62
2024-04-17T23:46:10.656Z,4.51
2024-04-17T23:48:37.233Z,4.36
2024-04-17T23:51:04.064Z,4.65
2024-04-17T23:53:30.643Z,4.85
2024-04-17T23:55:57.218Z,4.64
2024-04-17T23:58:23.773Z,4.56
